Seneca Corners, Wisconsin
Current Conditions -  °F | °C
As of 6:54 PM on Sunday 23 Nov 2014 (Local Time) from KISW Reporting Station
Overcast Overcast  
Wind Chill: 46°   Ceiling: 200
Heat Index: 46°   Visibility: NA
Dew Point: 44°   Wind: 3mph
Humidity: 93%   Direction: 90°E
Pressure: 29.34"   Gusts: NA
Location:  44.4583°N, 90.0009°W
Report Text: KISW 240054Z AUTO 09003KT OVC002 08/07 A2934 RMK AO2 SLP938 T00780067 $
Loading
Personal Weather Stations






























Interactive Weather Map New forecast layout! Learn more

10-Day Weather Forecast

Advertisements
Track Severe Weather on mobile